Time;durP1;ratioP1;P1;durP2;ratioP2;P2;SDS_P1;SDS_P2;PMS_P1;PMS_P2;Temp;Humidity;BMP_temperature;BMP_pressure;BME280_temperature;BME280_humidity;BME280_pressure;Samples;Min_cycle;Max_cycle;Signal;HPM_P1;HPM_P2
2021/08/21 00:00:45;;;;;;;4.80;4.03;;;17.50;99.90;;;;;;5032309;28;20449;-76
2021/08/21 00:03:10;;;;;;;6.68;4.40;;;17.50;99.90;;;;;;5033424;28;20519;-76
2021/08/21 00:05:36;;;;;;;8.50;4.50;;;17.50;99.90;;;;;;5033350;28;20033;-76
2021/08/21 00:08:03;;;;;;;7.97;4.60;;;17.40;99.90;;;;;;5032624;28;20053;-77
2021/08/21 00:10:31;;;;;;;7.13;4.50;;;17.40;99.90;;;;;;5017921;28;20049;-77
2021/08/21 00:12:57;;;;;;;7.75;4.30;;;17.40;99.90;;;;;;5013409;28;20021;-77
2021/08/21 00:15:23;;;;;;;9.18;4.45;;;17.30;99.90;;;;;;5012591;28;20018;-77
2021/08/21 00:17:49;;;;;;;6.82;4.20;;;17.30;99.90;;;;;;5010914;28;20083;-77
2021/08/21 00:20:18;;;;;;;6.63;4.75;;;17.30;99.90;;;;;;5010848;28;20489;-80
2021/08/21 00:22:44;;;;;;;10.23;4.28;;;17.30;99.90;;;;;;5030174;28;20057;-77
2021/08/21 00:25:10;;;;;;;10.00;4.32;;;17.40;99.90;;;;;;5031169;28;20049;-77
2021/08/21 00:27:36;;;;;;;8.38;4.93;;;17.30;99.90;;;;;;5032190;28;20052;-77
2021/08/21 00:30:02;;;;;;;10.90;4.97;;;17.30;99.90;;;;;;5031845;28;20499;-81
2021/08/21 00:32:28;;;;;;;7.60;4.63;;;17.30;99.90;;;;;;5030937;28;20029;-77
2021/08/21 00:34:54;;;;;;;9.73;4.57;;;17.30;99.90;;;;;;5032226;28;20105;-77
2021/08/21 00:37:19;;;;;;;7.40;4.68;;;17.20;99.90;;;;;;5031471;28;20025;-80
2021/08/21 00:39:48;;;;;;;6.53;4.40;;;17.20;99.90;;;;;;5032244;28;20489;-77
2021/08/21 00:42:13;;;;;;;5.78;4.35;;;17.20;99.90;;;;;;5030487;28;20052;-80
2021/08/21 00:44:40;;;;;;;7.45;4.43;;;17.20;99.90;;;;;;5028454;28;20056;-81
2021/08/21 00:47:19;;;;;;;6.72;4.70;;;17.20;99.90;;;;;;5032205;28;20025;-77
2021/08/21 00:49:54;;;;;;;7.03;4.50;;;17.20;99.90;;;;;;5027514;28;20045;-77
2021/08/21 00:52:21;;;;;;;5.90;4.43;;;17.20;99.90;;;;;;5028110;28;20033;-77
2021/08/21 00:54:51;;;;;;;6.63;4.55;;;17.10;99.90;;;;;;5030600;28;20041;-77
2021/08/21 00:57:17;;;;;;;8.77;4.40;;;17.10;99.90;;;;;;5030276;28;20124;-77
2021/08/21 00:59:45;;;;;;;6.38;5.00;;;17.10;99.90;;;;;;5031674;28;20506;-77
2021/08/21 01:02:11;;;;;;;6.18;4.78;;;17.10;99.90;;;;;;5030590;28;20029;-77
2021/08/21 01:04:42;;;;;;;6.00;4.75;;;17.10;99.90;;;;;;5031991;28;20038;-77
2021/08/21 01:07:10;;;;;;;7.75;4.80;;;17.10;99.90;;;;;;5031312;28;20040;-77
2021/08/21 01:09:38;;;;;;;7.32;5.28;;;17.10;99.90;;;;;;5022058;28;20080;-80
2021/08/21 01:12:11;;;;;;;6.55;4.60;;;17.00;99.90;;;;;;5011231;28;20125;-77
2021/08/21 01:14:37;;;;;;;6.63;4.53;;;17.00;99.90;;;;;;5011545;28;20080;-77
2021/08/21 01:17:04;;;;;;;7.50;5.00;;;17.00;99.90;;;;;;5011220;28;20033;-77
2021/08/21 01:19:32;;;;;;;7.35;4.75;;;17.00;99.90;;;;;;5009239;28;20041;-77
2021/08/21 01:21:58;;;;;;;5.15;4.70;;;17.00;99.90;;;;;;5024377;28;20028;-81
2021/08/21 01:24:27;;;;;;;10.70;4.72;;;17.00;99.90;;;;;;5031238;28;20021;-80
2021/08/21 01:26:54;;;;;;;6.75;4.10;;;17.00;99.90;;;;;;5031028;28;20079;-81
2021/08/21 01:29:20;;;;;;;5.55;4.55;;;17.00;99.90;;;;;;5031629;28;20021;-77
2021/08/21 01:31:47;;;;;;;5.25;4.30;;;17.00;99.90;;;;;;5031451;28;20041;-77
2021/08/21 01:34:12;;;;;;;6.07;4.45;;;17.00;99.90;;;;;;5030657;28;20029;-81
2021/08/21 01:36:46;;;;;;;7.70;4.90;;;17.00;99.90;;;;;;5030917;28;20024;-77
2021/08/21 01:39:12;;;;;;;8.70;4.40;;;17.00;99.90;;;;;;5030439;28;20150;-77
2021/08/21 01:41:41;;;;;;;9.18;5.35;;;17.00;99.90;;;;;;5030986;28;20043;-77
2021/08/21 01:44:12;;;;;;;8.40;4.72;;;17.00;99.90;;;;;;5031219;28;20511;-77
2021/08/21 01:46:38;;;;;;;10.13;4.53;;;17.00;99.90;;;;;;5029582;28;20515;-77
2021/08/21 01:49:11;;;;;;;7.75;4.85;;;17.00;99.90;;;;;;5030569;28;20081;-77
2021/08/21 01:51:41;;;;;;;7.55;4.50;;;17.00;99.90;;;;;;5028620;28;20116;-77
2021/08/21 01:54:19;;;;;;;11.23;4.90;;;17.00;99.90;;;;;;5029506;28;20061;-80
2021/08/21 01:56:53;;;;;;;5.20;4.40;;;17.00;99.90;;;;;;5030966;28;20107;-77
2021/08/21 01:59:24;;;;;;;9.77;4.82;;;17.10;99.90;;;;;;5030709;28;20463;-80
2021/08/21 02:01:51;;;;;;;6.10;4.32;;;17.00;99.90;;;;;;5030679;28;20032;-77
2021/08/21 02:04:17;;;;;;;5.57;4.35;;;17.00;99.90;;;;;;5029396;28;20025;-77
2021/08/21 02:06:43;;;;;;;6.97;4.47;;;17.00;99.90;;;;;;5030552;28;20504;-77
2021/08/21 02:09:14;;;;;;;7.05;4.20;;;17.00;99.90;;;;;;5028023;28;20041;-77
2021/08/21 02:11:39;;;;;;;5.78;4.18;;;17.00;99.90;;;;;;5029512;28;20025;-81
2021/08/21 02:14:05;;;;;;;5.65;4.45;;;17.00;99.90;;;;;;5030637;28;20112;-77
2021/08/21 02:16:31;;;;;;;10.00;4.45;;;17.00;99.90;;;;;;5030136;28;20373;-77
2021/08/21 02:18:58;;;;;;;11.65;4.28;;;17.00;99.90;;;;;;5029132;28;20029;-77
2021/08/21 02:21:27;;;;;;;7.05;4.32;;;17.00;99.90;;;;;;5029630;28;20523;-81
2021/08/21 02:23:55;;;;;;;5.05;3.83;;;17.00;99.90;;;;;;5029552;28;20120;-80
2021/08/21 02:26:21;;;;;;;6.22;4.10;;;17.00;99.90;;;;;;5030228;28;20026;-77
2021/08/21 02:28:49;;;;;;;6.63;4.63;;;17.00;99.90;;;;;;5009482;28;20026;-80
2021/08/21 02:31:15;;;;;;;9.15;4.43;;;17.00;99.90;;;;;;5009625;28;20468;-77
2021/08/21 02:33:41;;;;;;;6.32;4.28;;;17.00;99.90;;;;;;5010456;28;20088;-77
2021/08/21 02:36:06;;;;;;;5.60;4.25;;;17.00;99.90;;;;;;5009010;28;20551;-77
2021/08/21 02:38:32;;;;;;;8.25;4.10;;;17.00;99.90;;;;;;5008930;28;20026;-77
2021/08/21 02:40:58;;;;;;;6.32;4.40;;;17.00;99.90;;;;;;5006675;28;20026;-77
2021/08/21 02:43:23;;;;;;;7.80;4.88;;;17.00;99.90;;;;;;5010966;28;20022;-80
2021/08/21 02:45:49;;;;;;;9.15;4.60;;;17.00;99.90;;;;;;5031092;28;20030;-78
2021/08/21 02:48:15;;;;;;;6.15;4.45;;;17.00;99.90;;;;;;5019549;28;20026;-78
2021/08/21 02:50:41;;;;;;;8.50;4.03;;;17.00;99.90;;;;;;5011829;28;20140;-77
2021/08/21 02:53:07;;;;;;;6.70;3.95;;;17.00;99.90;;;;;;5030713;28;20105;-77
2021/08/21 02:55:33;;;;;;;4.72;3.95;;;16.90;99.90;;;;;;5033693;28;20029;-77
2021/08/21 02:57:58;;;;;;;6.20;3.85;;;16.90;99.90;;;;;;5032733;28;20040;-81
2021/08/21 03:00:24;;;;;;;5.03;3.88;;;16.90;99.90;;;;;;5033845;28;20036;-77
2021/08/21 03:02:50;;;;;;;5.30;4.05;;;16.90;99.90;;;;;;5033438;28;20585;-77
2021/08/21 03:05:15;;;;;;;6.70;4.25;;;16.90;99.90;;;;;;5033934;28;20051;-80
2021/08/21 03:07:41;;;;;;;5.15;3.97;;;16.90;99.90;;;;;;5033656;28;20094;-77
2021/08/21 03:10:07;;;;;;;6.47;4.10;;;16.80;99.90;;;;;;5032046;28;20029;-77
2021/08/21 03:12:33;;;;;;;6.38;4.18;;;16.80;99.90;;;;;;5032017;28;20440;-80
2021/08/21 03:14:59;;;;;;;5.38;4.00;;;16.80;99.90;;;;;;5033507;28;20171;-80
2021/08/21 03:17:25;;;;;;;7.25;4.70;;;16.80;99.90;;;;;;5033378;28;20434;-81
2021/08/21 03:19:51;;;;;;;7.20;4.32;;;16.80;99.90;;;;;;5032008;28;20025;-80
2021/08/21 03:22:17;;;;;;;9.27;4.53;;;16.80;99.90;;;;;;5032054;28;20025;-80
2021/08/21 03:24:42;;;;;;;7.20;3.92;;;16.80;99.90;;;;;;5033329;28;20025;-77
2021/08/21 03:27:09;;;;;;;5.57;4.00;;;16.80;99.90;;;;;;5033317;28;20014;-77
2021/08/21 03:29:34;;;;;;;5.30;3.95;;;16.80;99.90;;;;;;5032781;28;20065;-77
2021/08/21 03:32:00;;;;;;;4.13;3.72;;;16.70;99.90;;;;;;5033643;28;20061;-77
2021/08/21 03:34:26;;;;;;;7.18;4.47;;;16.70;99.90;;;;;;5033660;28;20025;-80
2021/08/21 03:36:52;;;;;;;7.20;4.40;;;16.70;99.90;;;;;;5033059;28;20488;-77
2021/08/21 03:39:18;;;;;;;8.27;4.50;;;16.70;99.90;;;;;;5031795;28;20518;-77
2021/08/21 03:41:43;;;;;;;11.75;4.80;;;16.70;99.90;;;;;;5032068;28;20072;-77
2021/08/21 03:44:09;;;;;;;9.25;4.22;;;16.70;99.90;;;;;;5032650;28;20488;-77
2021/08/21 03:46:38;;;;;;;7.82;4.43;;;16.60;99.90;;;;;;5031659;28;20107;-77
2021/08/21 03:49:04;;;;;;;4.40;4.00;;;16.60;99.90;;;;;;5015477;28;20049;-77
2021/08/21 03:51:30;;;;;;;6.72;4.32;;;16.60;99.90;;;;;;5030193;28;20112;-81
2021/08/21 03:53:56;;;;;;;5.10;4.57;;;16.60;99.90;;;;;;5032701;28;20180;-80
2021/08/21 03:56:21;;;;;;;9.52;4.60;;;16.50;99.90;;;;;;5031580;28;20148;-77
2021/08/21 03:58:47;;;;;;;7.80;5.40;;;16.50;99.90;;;;;;5031322;28;20036;-77
2021/08/21 04:01:13;;;;;;;7.22;4.88;;;16.50;99.90;;;;;;5031577;28;20085;-77
2021/08/21 04:03:39;;;;;;;6.78;5.00;;;16.40;99.90;;;;;;5032060;28;20026;-81
2021/08/21 04:06:07;;;;;;;8.95;5.10;;;16.40;99.90;;;;;;5031931;28;20025;-81
2021/08/21 04:08:33;;;;;;;6.20;5.10;;;16.40;99.90;;;;;;5031959;28;20459;-77
2021/08/21 04:10:59;;;;;;;10.00;5.45;;;16.40;99.90;;;;;;5031332;28;20109;-77
2021/08/21 04:13:27;;;;;;;6.22;4.95;;;16.40;99.90;;;;;;5032390;28;20021;-77
2021/08/21 04:15:53;;;;;;;11.00;6.45;;;16.40;99.90;;;;;;5030520;28;20041;-81
2021/08/21 04:18:19;;;;;;;8.60;6.28;;;16.40;99.90;;;;;;5032459;28;20403;-80
2021/08/21 04:20:45;;;;;;;7.43;6.00;;;16.40;99.90;;;;;;5031107;28;20033;-81
2021/08/21 04:23:10;;;;;;;9.63;6.10;;;16.40;99.90;;;;;;5030758;28;20025;-81
2021/08/21 04:25:36;;;;;;;8.88;6.28;;;16.40;99.90;;;;;;5031105;28;20578;-77
2021/08/21 04:28:02;;;;;;;10.32;7.10;;;16.40;99.90;;;;;;5017693;28;20401;-77
2021/08/21 04:30:27;;;;;;;12.95;7.05;;;16.40;99.90;;;;;;5012357;28;20547;-77
2021/08/21 04:32:53;;;;;;;9.63;7.28;;;16.40;99.90;;;;;;5012309;28;20084;-77
2021/08/21 04:35:18;;;;;;;12.20;7.25;;;16.40;99.90;;;;;;5010418;28;20141;-80
2021/08/21 04:37:44;;;;;;;12.18;7.85;;;16.40;99.90;;;;;;5010793;28;20060;-81
2021/08/21 04:40:10;;;;;;;13.07;7.75;;;16.30;99.90;;;;;;5012348;28;20069;-77
2021/08/21 04:42:36;;;;;;;10.55;7.38;;;16.40;99.90;;;;;;5011154;28;20028;-80
2021/08/21 04:45:03;;;;;;;11.13;7.78;;;16.40;99.90;;;;;;5027512;28;20104;-77
2021/08/21 04:47:29;;;;;;;11.48;7.82;;;16.40;99.90;;;;;;5027667;28;20074;-77
2021/08/21 04:49:55;;;;;;;9.38;7.78;;;16.40;99.90;;;;;;5016865;28;20555;-77
2021/08/21 04:52:22;;;;;;;12.32;7.72;;;16.30;99.90;;;;;;5030196;28;20029;-80
2021/08/21 04:54:48;;;;;;;10.20;7.82;;;16.30;99.90;;;;;;5030651;28;20531;-80
2021/08/21 04:57:14;;;;;;;12.60;8.07;;;16.30;99.90;;;;;;5031544;28;20025;-77
2021/08/21 04:59:40;;;;;;;13.35;8.23;;;16.30;99.90;;;;;;5031356;28;20048;-81
2021/08/21 05:02:05;;;;;;;10.20;7.28;;;16.30;99.90;;;;;;5030543;28;20120;-80
2021/08/21 05:04:31;;;;;;;12.55;8.20;;;16.30;99.90;;;;;;5031396;28;20636;-77
2021/08/21 05:06:57;;;;;;;11.75;8.25;;;16.30;99.90;;;;;;5031437;28;20026;-77
2021/08/21 05:09:23;;;;;;;11.68;8.07;;;16.30;99.90;;;;;;5031226;28;20030;-81
2021/08/21 05:11:49;;;;;;;9.98;7.90;;;16.30;99.90;;;;;;5030445;28;20029;-77
2021/08/21 05:14:15;;;;;;;10.40;7.78;;;16.30;99.90;;;;;;5031191;28;20025;-77
2021/08/21 05:16:43;;;;;;;9.52;7.47;;;16.30;99.90;;;;;;5029243;28;20052;-77
2021/08/21 05:19:34;;;;;;;12.52;7.88;;;16.30;99.90;;;;;;5029861;28;20033;-80
2021/08/21 05:21:58;;;;;;;10.15;7.32;;;16.30;99.90;;;;;;5029459;28;20378;-77
2021/08/21 05:24:23;;;;;;;11.57;8.13;;;16.40;99.90;;;;;;5029649;28;20036;-81
2021/08/21 05:26:50;;;;;;;14.88;8.55;;;16.40;99.90;;;;;;5025345;28;20022;-77
2021/08/21 05:29:16;;;;;;;13.75;7.88;;;16.40;99.90;;;;;;5010044;28;20041;-77
2021/08/21 05:31:42;;;;;;;10.38;7.50;;;16.50;99.90;;;;;;5011624;28;20497;-77
2021/08/21 05:34:11;;;;;;;13.80;8.02;;;16.50;99.90;;;;;;5011070;28;20045;-77
2021/08/21 05:36:37;;;;;;;12.93;8.40;;;16.50;99.90;;;;;;5023558;28;20085;-80
2021/08/21 05:39:06;;;;;;;13.30;8.02;;;16.60;99.90;;;;;;5029737;28;20573;-80
2021/08/21 05:41:31;;;;;;;13.32;8.48;;;16.60;99.90;;;;;;5029427;28;20025;-77
2021/08/21 05:43:57;;;;;;;11.48;7.13;;;16.60;99.90;;;;;;5028019;28;20021;-77
2021/08/21 05:46:23;;;;;;;11.35;7.75;;;16.70;99.90;;;;;;5029002;28;20037;-80
2021/08/21 05:48:48;;;;;;;14.38;8.07;;;16.70;99.90;;;;;;5030646;28;20531;-77
2021/08/21 05:51:14;;;;;;;11.65;7.93;;;16.70;99.90;;;;;;5029193;28;20036;-81
2021/08/21 05:53:39;;;;;;;11.55;7.65;;;16.80;99.90;;;;;;5030935;28;20511;-77
2021/08/21 05:56:05;;;;;;;10.70;7.28;;;16.90;99.90;;;;;;5031115;28;20033;-81
2021/08/21 05:58:31;;;;;;;11.00;7.63;;;16.90;99.90;;;;;;5029860;28;20052;-77
2021/08/21 06:00:57;;;;;;;12.93;7.00;;;17.00;99.90;;;;;;5030058;28;20436;-78
2021/08/21 06:03:22;;;;;;;10.48;6.70;;;17.00;99.90;;;;;;5029410;28;20029;-80
2021/08/21 06:05:48;;;;;;;18.60;6.53;;;17.10;99.90;;;;;;5028685;28;20033;-77
2021/08/21 06:08:14;;;;;;;10.65;7.00;;;17.10;99.90;;;;;;5030597;28;20021;-77
2021/08/21 06:10:42;;;;;;;9.20;5.78;;;17.20;99.90;;;;;;5029970;28;20065;-77
2021/08/21 06:13:09;;;;;;;8.68;6.40;;;17.30;99.90;;;;;;5029567;28;20037;-77
2021/08/21 06:15:35;;;;;;;12.02;6.85;;;17.30;99.90;;;;;;5029011;28;20108;-77
2021/08/21 06:18:01;;;;;;;8.30;6.03;;;17.40;99.90;;;;;;5030618;28;20037;-77
2021/08/21 06:20:30;;;;;;;9.60;6.50;;;17.40;99.90;;;;;;5028257;28;20064;-77
2021/08/21 06:22:55;;;;;;;6.38;5.55;;;17.50;99.90;;;;;;5030760;28;20030;-77
2021/08/21 06:25:21;;;;;;;11.25;5.75;;;17.60;99.90;;;;;;5030392;28;20443;-81
2021/08/21 06:27:47;;;;;;;9.85;5.63;;;17.70;99.90;;;;;;5032136;28;20021;-77
2021/08/21 06:30:13;;;;;;;6.53;5.03;;;17.80;99.90;;;;;;5034745;28;20033;-81
2021/08/21 06:32:39;;;;;;;7.18;4.60;;;17.90;99.90;;;;;;5035063;28;20036;-78
2021/08/21 06:35:05;;;;;;;7.47;4.60;;;18.00;99.90;;;;;;5032908;28;20021;-81
2021/08/21 06:37:31;;;;;;;6.13;4.45;;;18.10;99.90;;;;;;5034411;28;20064;-77
2021/08/21 06:39:56;;;;;;;7.15;4.10;;;18.20;99.90;;;;;;5034775;28;20049;-77
2021/08/21 06:42:22;;;;;;;11.30;4.75;;;18.30;99.90;;;;;;5034054;28;20028;-81
2021/08/21 06:44:48;;;;;;;6.07;4.50;;;18.40;99.90;;;;;;5034214;28;20026;-77
2021/08/21 06:47:14;;;;;;;5.90;3.95;;;18.50;99.90;;;;;;5035045;28;20029;-77
2021/08/21 06:49:40;;;;;;;8.35;4.30;;;18.60;99.90;;;;;;5030169;28;20050;-77
2021/08/21 06:52:06;;;;;;;7.28;4.07;;;18.70;99.90;;;;;;5029257;28;20037;-77
2021/08/21 06:54:32;;;;;;;7.88;4.03;;;18.80;99.90;;;;;;5034358;28;20400;-77
2021/08/21 06:56:57;;;;;;;6.80;4.00;;;18.90;99.90;;;;;;5034689;28;20044;-77
2021/08/21 06:59:23;;;;;;;8.52;3.60;;;19.10;99.90;;;;;;5034359;28;20511;-81
2021/08/21 07:01:49;;;;;;;5.38;3.22;;;19.20;99.90;;;;;;5032887;28;20025;-77
2021/08/21 07:04:15;;;;;;;6.30;3.33;;;19.40;99.90;;;;;;5032626;28;20111;-77
2021/08/21 07:06:40;;;;;;;7.30;3.42;;;19.50;99.90;;;;;;5034765;28;20033;-77
2021/08/21 07:09:06;;;;;;;4.55;3.13;;;19.60;99.90;;;;;;5035147;28;20026;-81
2021/08/21 07:11:32;;;;;;;4.18;2.90;;;19.80;99.90;;;;;;5033338;28;20029;-81
2021/08/21 07:13:58;;;;;;;4.35;2.70;;;19.90;99.90;;;;;;5035094;28;20035;-77
2021/08/21 07:16:24;;;;;;;7.25;3.05;;;20.10;99.90;;;;;;5032752;28;20554;-81
2021/08/21 07:18:49;;;;;;;5.07;2.83;;;20.20;99.90;;;;;;5034301;28;20026;-81
2021/08/21 07:21:18;;;;;;;4.38;2.80;;;20.30;99.90;;;;;;5033415;28;20029;-77
2021/08/21 07:23:44;;;;;;;5.55;2.60;;;20.40;99.90;;;;;;5034399;28;20029;-77
2021/08/21 07:26:10;;;;;;;3.33;2.47;;;20.50;99.90;;;;;;5032830;28;20025;-77
2021/08/21 07:28:35;;;;;;;5.20;2.70;;;20.60;99.90;;;;;;5016982;28;20025;-77
2021/08/21 07:31:01;;;;;;;4.90;2.40;;;20.60;99.90;;;;;;5015553;28;20030;-78
2021/08/21 07:33:28;;;;;;;5.47;2.42;;;20.60;99.90;;;;;;5013253;28;20454;-81
2021/08/21 07:35:54;;;;;;;6.97;2.30;;;20.60;99.90;;;;;;5015795;28;20022;-81
2021/08/21 07:38:19;;;;;;;4.35;2.60;;;20.80;99.90;;;;;;5014145;28;20049;-78
2021/08/21 07:40:45;;;;;;;3.65;2.53;;;20.90;99.90;;;;;;5013905;28;20022;-77
2021/08/21 07:43:11;;;;;;;4.68;2.92;;;21.10;99.90;;;;;;5011440;28;20033;-77
2021/08/21 07:45:36;;;;;;;3.53;2.40;;;21.30;99.90;;;;;;5035277;28;20045;-81
2021/08/21 07:48:02;;;;;;;2.03;1.83;;;21.60;99.90;;;;;;5034617;28;20029;-81
2021/08/21 07:50:28;;;;;;;3.15;2.20;;;21.90;99.90;;;;;;5023769;28;20058;-77
2021/08/21 07:52:54;;;;;;;4.38;1.90;;;22.00;99.90;;;;;;5032898;28;20022;-78
2021/08/21 07:55:19;;;;;;;2.70;1.88;;;22.00;99.90;;;;;;5033339;28;20040;-77
2021/08/21 07:57:45;;;;;;;4.72;1.92;;;21.90;99.90;;;;;;5035169;28;20570;-81
2021/08/21 08:00:11;;;;;;;2.17;1.70;;;21.90;99.90;;;;;;5034356;28;20037;-81
2021/08/21 08:02:36;;;;;;;2.15;1.63;;;21.90;99.90;;;;;;5035980;28;20532;-77
2021/08/21 08:05:02;;;;;;;3.28;1.40;;;22.20;99.90;;;;;;5034407;28;20400;-77
2021/08/21 08:07:28;;;;;;;1.80;1.50;;;22.60;99.90;;;;;;5034360;28;20025;-80
2021/08/21 08:09:54;;;;;;;2.33;1.63;;;23.20;99.90;;;;;;5035957;28;20029;-77
2021/08/21 08:12:19;;;;;;;2.15;1.50;;;23.60;99.70;;;;;;5033952;28;20522;-82
2021/08/21 08:14:45;;;;;;;1.85;1.50;;;23.00;99.90;;;;;;5034148;28;20025;-81
2021/08/21 08:17:11;;;;;;;2.95;1.40;;;22.90;99.70;;;;;;5034131;28;20033;-77
2021/08/21 08:19:37;;;;;;;1.95;1.55;;;23.00;99.90;;;;;;5035121;28;20030;-77
2021/08/21 08:22:03;;;;;;;4.00;1.50;;;23.00;99.90;;;;;;5032699;28;20125;-82
2021/08/21 08:24:29;;;;;;;2.92;1.65;;;22.80;99.90;;;;;;5036155;28;20049;-77
2021/08/21 08:26:55;;;;;;;3.58;2.03;;;23.10;99.90;;;;;;5034887;28;20088;-77
2021/08/21 08:29:21;;;;;;;2.28;1.60;;;23.30;99.90;;;;;;5036560;28;20807;-81
2021/08/21 08:31:46;;;;;;;2.00;1.48;;;23.00;99.90;;;;;;5037197;28;20022;-82
2021/08/21 08:34:12;;;;;;;2.85;1.95;;;22.80;99.90;;;;;;5034142;28;20036;-78
2021/08/21 08:36:37;;;;;;;4.70;1.45;;;22.90;99.90;;;;;;5034735;28;20401;-78
2021/08/21 08:39:03;;;;;;;2.67;1.60;;;23.50;99.90;;;;;;5035584;28;20037;-81
2021/08/21 08:41:29;;;;;;;5.70;1.67;;;24.80;97.90;;;;;;5037897;28;20032;-80
2021/08/21 08:43:56;;;;;;;2.10;1.50;;;25.30;96.30;;;;;;5037230;28;20113;-82
2021/08/21 08:46:22;;;;;;;2.65;1.75;;;26.50;96.00;;;;;;5037788;28;20022;-81
2021/08/21 08:48:48;;;;;;;1.70;1.60;;;28.20;93.30;;;;;;5036399;28;20108;-82
2021/08/21 08:51:15;;;;;;;3.03;1.73;;;29.40;91.70;;;;;;5032138;28;20065;-82
2021/08/21 08:53:41;;;;;;;2.60;1.65;;;30.20;90.30;;;;;;5037681;28;20056;-82
2021/08/21 08:56:07;;;;;;;1.70;1.60;;;29.50;89.10;;;;;;5035641;28;20021;-82
2021/08/21 08:58:32;;;;;;;1.60;1.50;;;29.70;88.70;;;;;;5035850;28;20515;-82
2021/08/21 09:00:59;;;;;;;2.00;1.70;;;30.30;86.50;;;;;;5036972;28;20033;-82
2021/08/21 09:03:26;;;;;;;2.00;1.80;;;30.60;86.00;;;;;;5035104;28;20028;-82
2021/08/21 09:05:54;;;;;;;3.88;1.75;;;30.80;83.50;;;;;;5033391;28;20115;-82
2021/08/21 09:08:26;;;;;;;1.95;1.80;;;28.80;87.10;;;;;;5032429;28;20025;-82
2021/08/21 09:11:16;;;;;;;4.43;1.73;;;28.00;89.50;;;;;;5031933;28;20147;-77
2021/08/21 09:13:42;;;;;;;2.20;1.75;;;29.00;87.20;;;;;;5032464;28;20030;-78
2021/08/21 09:16:08;;;;;;;2.38;1.63;;;29.80;85.70;;;;;;5031177;28;20041;-76
2021/08/21 09:18:33;;;;;;;2.10;1.70;;;28.30;86.50;;;;;;5031991;28;20033;-82
2021/08/21 09:21:02;;;;;;;2.00;1.70;;;26.30;91.00;;;;;;5032017;28;20018;-81
2021/08/21 09:23:27;;;;;;;4.07;1.92;;;26.00;92.30;;;;;;5033953;28;20017;-81
2021/08/21 09:26:14;;;;;;;5.13;2.05;;;26.90;91.10;;;;;;5033302;28;20025;-78
2021/08/21 09:28:45;;;;;;;2.20;2.00;;;28.10;89.90;;;;;;5030828;28;20032;-78
2021/08/21 09:31:16;;;;;;;2.10;2.00;;;29.90;85.30;;;;;;5034218;28;20108;-78
2021/08/21 09:33:53;;;;;;;2.22;2.00;;;30.80;83.20;;;;;;5031068;28;20026;-82
2021/08/21 09:36:36;;;;;;;7.07;2.25;;;31.00;82.50;;;;;;5031610;28;20025;-79
2021/08/21 09:39:07;;;;;;;1.83;1.70;;;32.00;82.40;;;;;;5033805;28;20073;-77
2021/08/21 09:41:56;;;;;;;2.75;1.50;;;30.90;80.90;;;;;;5029456;28;20029;-82
2021/08/21 09:44:41;;;;;;;2.00;1.80;;;27.60;89.00;;;;;;5031879;28;20026;-81
2021/08/21 09:47:25;;;;;;;2.17;1.92;;;27.90;90.50;;;;;;5030250;28;20025;-78
2021/08/21 09:49:52;;;;;;;4.05;1.75;;;29.10;87.10;;;;;;5024734;28;20046;-81
2021/08/21 09:52:19;;;;;;;1.85;1.70;;;28.30;88.60;;;;;;5026918;28;20029;-78
2021/08/21 09:55:02;;;;;;;2.38;2.10;;;28.90;89.90;;;;;;5032062;28;20030;-78
2021/08/21 09:57:28;;;;;;;2.05;1.70;;;29.70;85.70;;;;;;5030259;28;20037;-78
2021/08/21 09:59:59;;;;;;;2.42;1.60;;;28.40;87.30;;;;;;5029561;28;20037;-81
2021/08/21 10:02:26;;;;;;;2.90;1.55;;;27.10;90.30;;;;;;5031762;28;20036;-82
2021/08/21 10:04:52;;;;;;;2.75;2.15;;;27.50;91.00;;;;;;5034289;28;20032;-76
2021/08/21 10:07:21;;;;;;;3.65;2.03;;;27.20;90.90;;;;;;5034693;28;20026;-77
2021/08/21 10:09:50;;;;;;;3.95;1.70;;;26.90;91.60;;;;;;5033889;28;20079;-81
2021/08/21 10:12:16;;;;;;;3.38;1.70;;;29.10;88.80;;;;;;5036037;28;20071;-77
2021/08/21 10:14:45;;;;;;;1.67;1.58;;;29.00;87.60;;;;;;5034251;28;20033;-77
2021/08/21 10:17:15;;;;;;;2.47;1.80;;;27.50;90.10;;;;;;5033371;28;20036;-77
2021/08/21 10:19:41;;;;;;;2.08;1.60;;;27.50;90.60;;;;;;5033915;28;20084;-77
2021/08/21 10:22:10;;;;;;;2.00;1.80;;;26.30;91.40;;;;;;5033542;28;20099;-80
2021/08/21 10:24:40;;;;;;;4.05;1.73;;;25.40;93.40;;;;;;5038798;28;20407;-77
2021/08/21 10:27:21;;;;;;;3.08;1.70;;;24.60;93.90;;;;;;5035384;28;20388;-82
2021/08/21 10:30:12;;;;;;;2.92;1.70;;;24.00;95.10;;;;;;5035639;28;20440;-77
2021/08/21 10:32:43;;;;;;;4.03;1.80;;;23.70;96.50;;;;;;5033573;28;20079;-77
2021/08/21 10:35:11;;;;;;;3.15;1.77;;;23.70;96.90;;;;;;5035360;28;20443;-77
2021/08/21 10:37:39;;;;;;;2.75;1.77;;;23.30;97.90;;;;;;5035181;28;20100;-77
2021/08/21 10:40:27;;;;;;;9.75;2.08;;;23.60;97.90;;;;;;5034499;28;20030;-77
2021/08/21 10:42:58;;;;;;;3.72;1.85;;;25.10;95.90;;;;;;5035097;28;20025;-82
2021/08/21 10:45:39;;;;;;;3.40;1.50;;;25.80;94.10;;;;;;5032769;28;20143;-77
2021/08/21 10:48:26;;;;;;;1.83;1.70;;;26.20;94.10;;;;;;5034021;28;20045;-77
2021/08/21 10:50:52;;;;;;;2.30;1.73;;;26.60;94.00;;;;;;5018007;28;20067;-77
2021/08/21 10:53:27;;;;;;;2.78;1.63;;;26.60;93.50;;;;;;5033595;28;20044;-81
2021/08/21 10:55:54;;;;;;;2.42;1.77;;;25.60;94.90;;;;;;5036108;28;20013;-77
2021/08/21 10:58:22;;;;;;;3.40;1.73;;;25.70;94.60;;;;;;5033872;28;20040;-77
2021/08/21 11:01:01;;;;;;;1.65;1.55;;;26.00;94.80;;;;;;5035833;28;20052;-77
2021/08/21 11:03:29;;;;;;;2.65;1.80;;;25.80;94.40;;;;;;5037331;28;20028;-80
2021/08/21 11:06:00;;;;;;;4.22;1.75;;;26.90;93.60;;;;;;5034005;28;20022;-77
2021/08/21 11:08:31;;;;;;;1.88;1.65;;;26.50;93.50;;;;;;5035602;28;20164;-77
2021/08/21 11:11:19;;;;;;;2.47;1.80;;;26.20;93.90;;;;;;5033155;28;20056;-77
2021/08/21 11:13:54;;;;;;;1.90;1.70;;;24.80;95.90;;;;;;5033727;28;20032;-77
2021/08/21 11:16:21;;;;;;;4.90;1.75;;;24.80;95.80;;;;;;5036416;28;20100;-81
2021/08/21 11:18:50;;;;;;;6.75;1.90;;;24.60;96.10;;;;;;5036879;28;20037;-81
2021/08/21 11:21:32;;;;;;;3.72;2.08;;;25.30;95.30;;;;;;5035006;28;20025;-81
2021/08/21 11:23:58;;;;;;;2.95;1.80;;;25.40;94.80;;;;;;5034653;28;20037;-81
2021/08/21 11:26:23;;;;;;;3.78;1.73;;;25.60;94.80;;;;;;5033035;28;20025;-78
2021/08/21 11:29:10;;;;;;;3.47;2.05;;;25.30;95.20;;;;;;5015624;28;20030;-80
2021/08/21 11:32:01;;;;;;;1.90;1.80;;;24.40;96.30;;;;;;5014303;28;20107;-76
2021/08/21 11:34:36;;;;;;;2.40;2.17;;;24.00;97.20;;;;;;5013461;28;20567;-81
2021/08/21 11:37:05;;;;;;;2.15;1.90;;;23.70;97.40;;;;;;5012567;28;20074;-81
2021/08/21 11:39:31;;;;;;;3.95;1.92;;;23.70;97.90;;;;;;5013113;28;20033;-81
2021/08/21 11:41:57;;;;;;;4.78;1.98;;;23.80;97.50;;;;;;5012209;28;20398;-76
2021/08/21 11:44:27;;;;;;;3.83;1.92;;;23.70;98.10;;;;;;5023294;28;20025;-77
2021/08/21 11:47:06;;;;;;;3.08;1.90;;;23.80;97.90;;;;;;5030465;28;20065;-76
2021/08/21 11:49:32;;;;;;;3.72;1.85;;;23.50;98.40;;;;;;5032658;28;20418;-81
2021/08/21 11:52:02;;;;;;;3.63;1.85;;;23.50;98.50;;;;;;5027693;28;20108;-81
2021/08/21 11:54:28;;;;;;;3.30;1.88;;;23.60;98.60;;;;;;5036241;28;20547;-81
2021/08/21 11:57:02;;;;;;;3.55;1.88;;;23.50;98.60;;;;;;5033376;28;20065;-77
2021/08/21 11:59:28;;;;;;;3.08;1.92;;;23.50;99.10;;;;;;5035225;28;20029;-77
2021/08/21 12:02:04;;;;;;;3.28;2.05;;;23.70;98.90;;;;;;5033722;28;20037;-81
2021/08/21 12:04:32;;;;;;;3.88;2.05;;;23.40;99.00;;;;;;5035824;28;20423;-77
2021/08/21 12:06:58;;;;;;;5.20;1.75;;;23.60;99.10;;;;;;5032774;28;20037;-77
2021/08/21 12:09:24;;;;;;;3.10;2.15;;;23.70;98.70;;;;;;5033966;28;20488;-81
2021/08/21 12:11:51;;;;;;;2.58;2.05;;;23.30;98.90;;;;;;5032957;28;20108;-76
2021/08/21 12:14:23;;;;;;;3.05;1.92;;;23.40;99.00;;;;;;5035038;28;20053;-81
2021/08/21 12:16:53;;;;;;;3.25;2.08;;;23.50;99.20;;;;;;5033773;28;20035;-82
2021/08/21 12:19:20;;;;;;;3.13;2.05;;;23.50;99.00;;;;;;5034551;28;20025;-77
2021/08/21 12:21:47;;;;;;;4.50;2.03;;;23.70;98.90;;;;;;5032776;28;20021;-81
2021/08/21 12:24:13;;;;;;;7.50;2.00;;;24.00;98.30;;;;;;5035373;28;20457;-82
2021/08/21 12:26:44;;;;;;;2.95;2.00;;;24.30;97.50;;;;;;5031362;28;20102;-81
2021/08/21 12:29:39;;;;;;;2.30;2.05;;;23.80;98.00;;;;;;5031659;28;20033;-81
2021/08/21 12:32:05;;;;;;;5.13;2.25;;;23.50;98.60;;;;;;5018054;28;20038;-81
2021/08/21 12:34:31;;;;;;;3.80;2.35;;;23.60;98.90;;;;;;5036880;28;20036;-81
2021/08/21 12:37:05;;;;;;;2.83;1.95;;;24.20;98.00;;;;;;5035156;28;20072;-81
2021/08/21 12:39:30;;;;;;;6.13;2.17;;;24.20;98.00;;;;;;5034039;28;20026;-81
2021/08/21 12:42:03;;;;;;;2.25;2.05;;;24.40;97.40;;;;;;5035398;28;20035;-81
2021/08/21 12:44:36;;;;;;;3.30;2.40;;;24.40;97.40;;;;;;5035329;28;20034;-81
2021/08/21 12:47:02;;;;;;;3.05;2.10;;;24.80;97.10;;;;;;5035733;28;20448;-81
2021/08/21 12:49:48;;;;;;;2.33;2.00;;;24.80;96.60;;;;;;5035697;28;20208;-80